sensor_id;sensor_type;location;lat;lon;timestamp;pressure;altitude;pressure_sealevel;temperature;humidity
62976;BME280;49071;0.000;0.000;2022-11-22T06:58:11;99592.59;;;14.88;37.51
62976;BME280;49071;0.000;0.000;2022-11-22T07:01:12;99604.34;;;14.92;37.30
62976;BME280;49071;0.000;0.000;2022-11-22T07:04:14;99605.09;;;15.02;37.36
62976;BME280;49071;0.000;0.000;2022-11-22T07:07:14;99614.31;;;15.17;37.08
62976;BME280;49071;0.000;0.000;2022-11-22T07:10:14;99611.19;;;15.33;36.84
62976;BME280;49071;0.000;0.000;2022-11-22T07:13:15;99606.50;;;15.49;36.57
62976;BME280;49071;0.000;0.000;2022-11-22T07:16:16;99611.97;;;15.67;36.45
62976;BME280;49071;0.000;0.000;2022-11-22T07:19:16;99605.38;;;15.89;36.19
62976;BME280;49071;0.000;0.000;2022-11-22T07:22:17;99615.47;;;16.10;35.81
62976;BME280;49071;0.000;0.000;2022-11-22T07:25:17;99616.50;;;16.37;35.49
62976;BME280;49071;0.000;0.000;2022-11-22T07:28:17;99622.34;;;16.78;35.38
62976;BME280;49071;0.000;0.000;2022-11-22T07:31:17;99612.28;;;17.10;35.38
62976;BME280;49071;0.000;0.000;2022-11-22T07:34:18;99613.63;;;17.30;35.35
62976;BME280;49071;0.000;0.000;2022-11-22T07:37:18;99610.25;;;17.40;35.21
62976;BME280;49071;0.000;0.000;2022-11-22T07:40:18;99609.50;;;17.40;35.28
62976;BME280;49071;0.000;0.000;2022-11-22T07:43:18;99607.53;;;17.46;35.09
62976;BME280;49071;0.000;0.000;2022-11-22T07:46:23;99603.63;;;17.38;35.23
62976;BME280;49071;0.000;0.000;2022-11-22T07:49:23;99605.44;;;17.26;35.37
62976;BME280;49071;0.000;0.000;2022-11-22T07:52:24;99596.88;;;17.15;35.41
62976;BME280;49071;0.000;0.000;2022-11-22T07:55:24;99560.91;;;16.72;35.42
62976;BME280;49071;0.000;0.000;2022-11-22T07:58:25;99614.22;;;16.89;35.71
62976;BME280;49071;0.000;0.000;2022-11-22T08:01:26;99605.44;;;16.81;35.78
62976;BME280;49071;0.000;0.000;2022-11-22T08:04:26;99610.44;;;16.77;35.77
62976;BME280;49071;0.000;0.000;2022-11-22T08:07:26;99608.88;;;16.76;36.07
62976;BME280;49071;0.000;0.000;2022-11-22T08:10:26;99614.47;;;16.76;35.86
62976;BME280;49071;0.000;0.000;2022-11-22T08:13:27;99604.09;;;16.77;35.84
62976;BME280;49071;0.000;0.000;2022-11-22T08:16:27;99604.88;;;16.92;35.80
62976;BME280;49071;0.000;0.000;2022-11-22T08:19:28;99604.97;;;17.13;35.32
62976;BME280;49071;0.000;0.000;2022-11-22T08:22:29;99598.59;;;17.27;35.46
62976;BME280;49071;0.000;0.000;2022-11-22T08:25:29;99601.88;;;17.40;35.24
62976;BME280;49071;0.000;0.000;2022-11-22T08:28:29;99595.69;;;17.51;35.00
62976;BME280;49071;0.000;0.000;2022-11-22T08:31:29;99593.22;;;17.38;35.22
62976;BME280;49071;0.000;0.000;2022-11-22T08:34:30;99585.97;;;17.46;35.00
62976;BME280;49071;0.000;0.000;2022-11-22T08:37:30;99592.53;;;17.43;34.92
62976;BME280;49071;0.000;0.000;2022-11-22T08:40:30;99586.81;;;17.53;34.92
62976;BME280;49071;0.000;0.000;2022-11-22T08:43:31;99589.78;;;17.64;34.58
62976;BME280;49071;0.000;0.000;2022-11-22T08:46:31;99573.19;;;17.75;34.44
62976;BME280;49071;0.000;0.000;2022-11-22T08:49:31;99581.06;;;17.77;34.38
62976;BME280;49071;0.000;0.000;2022-11-22T08:52:32;99575.31;;;17.80;34.29
62976;BME280;49071;0.000;0.000;2022-11-22T08:55:33;99589.84;;;17.84;34.36
62976;BME280;49071;0.000;0.000;2022-11-22T08:58:33;99587.31;;;18.07;34.01
62976;BME280;49071;0.000;0.000;2022-11-22T09:01:33;99575.94;;;18.10;34.33
62976;BME280;49071;0.000;0.000;2022-11-22T09:04:33;99579.88;;;17.98;34.31
62976;BME280;49071;0.000;0.000;2022-11-22T09:07:34;99583.13;;;17.97;34.19
62976;BME280;49071;0.000;0.000;2022-11-22T09:10:34;99581.75;;;17.86;34.43
62976;BME280;49071;0.000;0.000;2022-11-22T09:13:34;99582.03;;;17.88;34.43
62976;BME280;49071;0.000;0.000;2022-11-22T09:16:35;99593.91;;;17.83;34.51
62976;BME280;49071;0.000;0.000;2022-11-22T09:19:35;99595.72;;;17.86;34.48
62976;BME280;49071;0.000;0.000;2022-11-22T09:22:35;99610.25;;;17.90;34.47
62976;BME280;49071;0.000;0.000;2022-11-22T09:25:36;99616.47;;;18.00;34.37
62976;BME280;49071;0.000;0.000;2022-11-22T09:28:36;99614.84;;;18.14;34.37
62976;BME280;49071;0.000;0.000;2022-11-22T09:31:37;99622.53;;;17.99;34.49
62976;BME280;49071;0.000;0.000;2022-11-22T09:34:37;99633.16;;;17.95;34.51
62976;BME280;49071;0.000;0.000;2022-11-22T09:37:37;99633.25;;;17.85;34.71
62976;BME280;49071;0.000;0.000;2022-11-22T09:40:38;99626.75;;;17.74;34.83
62976;BME280;49071;0.000;0.000;2022-11-22T09:46:55;99623.72;;;17.77;34.66
62976;BME280;49071;0.000;0.000;2022-11-22T09:53:02;99633.56;;;17.87;34.53
62976;BME280;49071;0.000;0.000;2022-11-22T09:56:06;99644.31;;;17.95;34.39
62976;BME280;49071;0.000;0.000;2022-11-22T09:59:12;99643.09;;;17.96;34.31
62976;BME280;49071;0.000;0.000;2022-11-22T10:02:36;99625.69;;;18.06;34.20
62976;BME280;49071;0.000;0.000;2022-11-22T10:05:54;99602.00;;;18.02;34.32
62976;BME280;49071;0.000;0.000;2022-11-22T10:15:28;99618.63;;;18.11;34.12
62976;BME280;49071;0.000;0.000;2022-11-22T10:21:30;99623.66;;;18.27;33.92
62976;BME280;49071;0.000;0.000;2022-11-22T10:24:31;99614.66;;;18.18;34.13
62976;BME280;49071;0.000;0.000;2022-11-22T10:27:31;99613.81;;;18.11;34.15
62976;BME280;49071;0.000;0.000;2022-11-22T10:30:34;99605.50;;;17.97;34.33
62976;BME280;49071;0.000;0.000;2022-11-22T10:49:25;99614.63;;;17.97;34.54
62976;BME280;49071;0.000;0.000;2022-11-22T11:15:38;99631.22;;;18.42;33.82
62976;BME280;49071;0.000;0.000;2022-11-22T11:18:53;99623.97;;;18.29;34.07
62976;BME280;49071;0.000;0.000;2022-11-22T11:28:41;99620.56;;;17.84;34.67
62976;BME280;49071;0.000;0.000;2022-11-22T11:31:42;99616.63;;;17.76;34.72
62976;BME280;49071;0.000;0.000;2022-11-22T11:34:47;99607.25;;;17.79;34.66
62976;BME280;49071;0.000;0.000;2022-11-22T11:37:49;99619.41;;;17.91;34.57
62976;BME280;49071;0.000;0.000;2022-11-22T11:40:49;99627.25;;;18.07;34.36
62976;BME280;49071;0.000;0.000;2022-11-22T11:43:52;99623.59;;;18.22;34.12
62976;BME280;49071;0.000;0.000;2022-11-22T11:46:52;99618.47;;;18.41;33.81
62976;BME280;49071;0.000;0.000;2022-11-22T11:49:52;99630.50;;;18.47;33.88
62976;BME280;49071;0.000;0.000;2022-11-22T11:53:01;99631.88;;;18.57;33.75
62976;BME280;49071;0.000;0.000;2022-11-22T11:56:26;99627.84;;;18.58;33.71
62976;BME280;49071;0.000;0.000;2022-11-22T11:59:47;99635.97;;;18.56;33.70
62976;BME280;49071;0.000;0.000;2022-11-22T12:02:47;99626.56;;;18.59;33.72
62976;BME280;49071;0.000;0.000;2022-11-22T12:05:55;99623.56;;;18.63;33.75
62976;BME280;49071;0.000;0.000;2022-11-22T12:09:18;99616.28;;;18.71;33.67
62976;BME280;49071;0.000;0.000;2022-11-22T12:15:49;99609.94;;;18.70;33.61
62976;BME280;49071;0.000;0.000;2022-11-22T12:22:04;99606.81;;;18.42;33.90
62976;BME280;49071;0.000;0.000;2022-11-22T12:25:19;99610.25;;;18.31;34.09
62976;BME280;49071;0.000;0.000;2022-11-22T12:28:21;99597.59;;;18.16;34.26
62976;BME280;49071;0.000;0.000;2022-11-22T12:37:39;99606.50;;;17.79;34.71
62976;BME280;49071;0.000;0.000;2022-11-22T12:40:41;99602.28;;;17.68;34.90
62976;BME280;49071;0.000;0.000;2022-11-22T12:46:49;99604.34;;;17.53;35.08
62976;BME280;49071;0.000;0.000;2022-11-22T12:49:54;99598.88;;;17.44;35.25
62976;BME280;49071;0.000;0.000;2022-11-22T12:52:58;99603.50;;;17.32;35.38
62976;BME280;49071;0.000;0.000;2022-11-22T13:03:10;99609.31;;;16.99;35.75
62976;BME280;49071;0.000;0.000;2022-11-22T13:05:44;99599.97;;;17.02;35.59
62976;BME280;49071;0.000;0.000;2022-11-22T13:08:53;99586.78;;;17.02;35.57
62976;BME280;49071;0.000;0.000;2022-11-22T13:12:03;99596.81;;;17.09;35.51
62976;BME280;49071;0.000;0.000;2022-11-22T13:15:05;99598.25;;;17.19;35.37
62976;BME280;49071;0.000;0.000;2022-11-22T13:18:08;99585.72;;;17.30;35.24
62976;BME280;49071;0.000;0.000;2022-11-22T13:24:39;99580.16;;;17.65;34.62
62976;BME280;49071;0.000;0.000;2022-11-22T13:27:43;99578.09;;;17.80;34.55
62976;BME280;49071;0.000;0.000;2022-11-22T13:34:04;99559.84;;;18.26;33.91
62976;BME280;49071;0.000;0.000;2022-11-22T13:37:17;99563.88;;;18.45;33.74
62976;BME280;49071;0.000;0.000;2022-11-22T13:40:40;99564.22;;;18.53;33.53
62976;BME280;49071;0.000;0.000;2022-11-22T13:43:52;99567.81;;;18.53;33.68
62976;BME280;49071;0.000;0.000;2022-11-22T13:49:53;99563.41;;;18.47;33.81
62976;BME280;49071;0.000;0.000;2022-11-22T13:52:53;99563.28;;;18.36;33.98
62976;BME280;49071;0.000;0.000;2022-11-22T13:55:55;99559.09;;;18.25;34.03
62976;BME280;49071;0.000;0.000;2022-11-22T13:59:12;99549.06;;;18.13;34.24
62976;BME280;49071;0.000;0.000;2022-11-22T14:02:22;99552.22;;;18.00;34.33
62976;BME280;49071;0.000;0.000;2022-11-22T14:14:53;99559.66;;;17.53;34.94
62976;BME280;49071;0.000;0.000;2022-11-22T14:30:37;99571.22;;;17.11;35.56
62976;BME280;49071;0.000;0.000;2022-11-22T14:33:38;99574.13;;;17.01;35.87
62976;BME280;49071;0.000;0.000;2022-11-22T14:40:15;99557.16;;;17.05;35.62
62976;BME280;49071;0.000;0.000;2022-11-22T14:43:31;99557.34;;;17.16;35.35
62976;BME280;49071;0.000;0.000;2022-11-22T14:46:53;99558.09;;;17.32;35.19
62976;BME280;49071;0.000;0.000;2022-11-22T14:49:54;99576.06;;;17.45;34.97
62976;BME280;49071;0.000;0.000;2022-11-22T14:53:18;99585.72;;;17.65;34.80
62976;BME280;49071;0.000;0.000;2022-11-22T14:56:29;99586.06;;;17.87;34.59
62976;BME280;49071;0.000;0.000;2022-11-22T15:12:27;99589.38;;;18.53;33.65
62976;BME280;49071;0.000;0.000;2022-11-22T15:15:37;99594.88;;;18.42;33.78
62976;BME280;49071;0.000;0.000;2022-11-22T15:18:38;99599.63;;;18.36;33.85
62976;BME280;49071;0.000;0.000;2022-11-22T15:21:43;99599.22;;;18.22;34.18
62976;BME280;49071;0.000;0.000;2022-11-22T15:24:43;99597.53;;;18.10;34.16
62976;BME280;49071;0.000;0.000;2022-11-22T15:27:47;99610.09;;;18.00;34.34
62976;BME280;49071;0.000;0.000;2022-11-22T15:30:48;99613.22;;;17.87;34.39
62976;BME280;49071;0.000;0.000;2022-11-22T15:33:50;99614.41;;;17.80;34.55
62976;BME280;49071;0.000;0.000;2022-11-22T15:37:52;99612.47;;;17.86;34.54
62976;BME280;49071;0.000;0.000;2022-11-22T15:40:22;99618.69;;;17.96;34.48
62976;BME280;49071;0.000;0.000;2022-11-22T15:43:24;99616.88;;;18.13;34.25
62976;BME280;49071;0.000;0.000;2022-11-22T15:46:25;99620.47;;;18.34;33.85
62976;BME280;49071;0.000;0.000;2022-11-22T15:49:26;99619.88;;;18.51;33.67
62976;BME280;49071;0.000;0.000;2022-11-22T15:52:29;99614.81;;;18.55;33.63
62976;BME280;49071;0.000;0.000;2022-11-22T15:55:29;99617.28;;;18.47;33.73
62976;BME280;49071;0.000;0.000;2022-11-22T15:58:30;99611.75;;;18.53;33.67
62976;BME280;49071;0.000;0.000;2022-11-22T16:01:35;99622.59;;;18.45;33.72
62976;BME280;49071;0.000;0.000;2022-11-22T16:04:36;99624.91;;;18.47;33.74
62976;BME280;49071;0.000;0.000;2022-11-22T16:07:41;99620.84;;;18.48;34.14
62976;BME280;49071;0.000;0.000;2022-11-22T16:10:45;99626.72;;;18.50;34.21
62976;BME280;49071;0.000;0.000;2022-11-22T16:13:47;99631.13;;;18.36;34.37
62976;BME280;49071;0.000;0.000;2022-11-22T16:16:48;99630.50;;;18.26;34.70
62976;BME280;49071;0.000;0.000;2022-11-22T16:19:48;99637.78;;;18.18;34.66
62976;BME280;49071;0.000;0.000;2022-11-22T16:23:09;99639.19;;;18.08;34.92
62976;BME280;49071;0.000;0.000;2022-11-22T16:29:28;99634.81;;;17.86;35.40
62976;BME280;49071;0.000;0.000;2022-11-22T16:32:30;99628.84;;;17.79;35.50
62976;BME280;49071;0.000;0.000;2022-11-22T16:35:31;99638.31;;;17.81;35.39
62976;BME280;49071;0.000;0.000;2022-11-22T16:38:31;99634.59;;;17.90;35.25
62976;BME280;49071;0.000;0.000;2022-11-22T16:41:32;99632.72;;;18.02;35.14
62976;BME280;49071;0.000;0.000;2022-11-22T16:44:33;99627.16;;;18.22;35.08
62976;BME280;49071;0.000;0.000;2022-11-22T16:47:33;99623.09;;;18.44;34.52
62976;BME280;49071;0.000;0.000;2022-11-22T16:50:33;99615.66;;;18.61;34.28
62976;BME280;49071;0.000;0.000;2022-11-22T16:53:41;99619.16;;;18.76;34.10
62976;BME280;49071;0.000;0.000;2022-11-22T16:56:42;99619.16;;;19.03;34.06
62976;BME280;49071;0.000;0.000;2022-11-22T16:59:42;99606.47;;;19.07;33.95
62976;BME280;49071;0.000;0.000;2022-11-22T17:02:42;99615.16;;;19.09;34.10
62976;BME280;49071;0.000;0.000;2022-11-22T17:05:43;99624.06;;;19.13;33.94
62976;BME280;49071;0.000;0.000;2022-11-22T17:08:43;99623.38;;;19.18;34.24
62976;BME280;49071;0.000;0.000;2022-11-22T17:11:44;99632.38;;;19.02;34.16
62976;BME280;49071;0.000;0.000;2022-11-22T17:14:44;99637.72;;;19.00;34.44
62976;BME280;49071;0.000;0.000;2022-11-22T17:17:47;99638.03;;;19.08;34.36
62976;BME280;49071;0.000;0.000;2022-11-22T17:20:47;99640.19;;;19.18;34.35
62976;BME280;49071;0.000;0.000;2022-11-22T17:23:48;99643.19;;;19.15;34.26
62976;BME280;49071;0.000;0.000;2022-11-22T17:26:48;99645.78;;;19.18;34.15
62976;BME280;49071;0.000;0.000;2022-11-22T17:29:49;99654.16;;;19.18;34.21
62976;BME280;49071;0.000;0.000;2022-11-22T17:32:49;99655.41;;;19.17;34.18
62976;BME280;49071;0.000;0.000;2022-11-22T17:35:50;99663.81;;;19.17;34.43
62976;BME280;49071;0.000;0.000;2022-11-22T17:38:50;99668.22;;;19.24;34.17
62976;BME280;49071;0.000;0.000;2022-11-22T17:41:51;99665.97;;;19.28;34.04
62976;BME280;49071;0.000;0.000;2022-11-22T17:44:51;99665.25;;;19.33;34.08
62976;BME280;49071;0.000;0.000;2022-11-22T17:47:51;99675.16;;;19.34;34.06
62976;BME280;49071;0.000;0.000;2022-11-22T17:50:51;99673.38;;;19.31;34.33
62976;BME280;49071;0.000;0.000;2022-11-22T17:53:52;99685.28;;;19.26;34.32
62976;BME280;49071;0.000;0.000;2022-11-22T17:56:52;99675.50;;;19.16;34.40
62976;BME280;49071;0.000;0.000;2022-11-22T17:59:52;99666.50;;;19.06;34.75
62976;BME280;49071;0.000;0.000;2022-11-22T18:02:52;99663.59;;;18.95;34.87
62976;BME280;49071;0.000;0.000;2022-11-22T18:05:53;99673.44;;;18.85;35.02
62976;BME280;49071;0.000;0.000;2022-11-22T18:08:53;99667.69;;;18.73;35.34
62976;BME280;49071;0.000;0.000;2022-11-22T18:11:53;99670.34;;;18.62;35.28
62976;BME280;49071;0.000;0.000;2022-11-22T18:14:54;99667.13;;;18.49;35.70
62976;BME280;49071;0.000;0.000;2022-11-22T18:17:54;99676.25;;;18.44;35.64
62976;BME280;49071;0.000;0.000;2022-11-22T18:20:55;99674.41;;;18.41;35.70
62976;BME280;49071;0.000;0.000;2022-11-22T18:23:58;99683.72;;;18.32;35.82
62976;BME280;49071;0.000;0.000;2022-11-22T18:26:59;99691.16;;;18.20;35.98
62976;BME280;49071;0.000;0.000;2022-11-22T18:29:59;99697.16;;;18.13;36.11
62976;BME280;49071;0.000;0.000;2022-11-22T18:32:59;99697.16;;;18.13;36.15
62976;BME280;49071;0.000;0.000;2022-11-22T18:36:02;99699.50;;;18.15;36.09
62976;BME280;49071;0.000;0.000;2022-11-22T18:39:03;99705.84;;;18.15;36.09
62976;BME280;49071;0.000;0.000;2022-11-22T18:42:04;99714.09;;;18.24;35.88
62976;BME280;49071;0.000;0.000;2022-11-22T18:45:05;99711.31;;;18.24;35.91
62976;BME280;49071;0.000;0.000;2022-11-22T18:48:06;99713.41;;;18.50;35.42
62976;BME280;49071;0.000;0.000;2022-11-22T18:51:07;99718.72;;;18.68;35.18
62976;BME280;49071;0.000;0.000;2022-11-22T18:54:08;99722.19;;;18.78;35.13
62976;BME280;49071;0.000;0.000;2022-11-22T18:57:09;99703.72;;;19.12;34.76
62976;BME280;49071;0.000;0.000;2022-11-22T19:00:09;99713.75;;;19.25;34.51
62976;BME280;49071;0.000;0.000;2022-11-22T19:03:10;99699.28;;;19.26;34.63
62976;BME280;49071;0.000;0.000;2022-11-22T19:06:11;99703.44;;;19.36;34.28
62976;BME280;49071;0.000;0.000;2022-11-22T19:09:12;99699.06;;;19.30;34.71
62976;BME280;49071;0.000;0.000;2022-11-22T19:12:12;99689.13;;;19.29;34.65
62976;BME280;49071;0.000;0.000;2022-11-22T19:15:12;99686.16;;;19.38;34.48
62976;BME280;49071;0.000;0.000;2022-11-22T19:18:13;99684.31;;;19.35;34.81
62976;BME280;49071;0.000;0.000;2022-11-22T19:21:16;99684.84;;;19.33;34.95
62976;BME280;49071;0.000;0.000;2022-11-22T19:24:17;99694.31;;;19.42;34.73
62976;BME280;49071;0.000;0.000;2022-11-22T19:27:17;99691.81;;;19.44;34.58
62976;BME280;49071;0.000;0.000;2022-11-22T19:30:18;99700.16;;;19.38;34.49
62976;BME280;49071;0.000;0.000;2022-11-22T19:33:18;99703.06;;;19.23;35.02
62976;BME280;49071;0.000;0.000;2022-11-22T19:36:19;99701.47;;;19.16;35.07
62976;BME280;49071;0.000;0.000;2022-11-22T19:39:20;99707.53;;;19.09;35.19
62976;BME280;49071;0.000;0.000;2022-11-22T19:42:20;99701.78;;;18.98;35.40
62976;BME280;49071;0.000;0.000;2022-11-22T19:45:20;99703.78;;;18.92;35.65
62976;BME280;49071;0.000;0.000;2022-11-22T19:48:20;99707.47;;;18.83;35.71
62976;BME280;49071;0.000;0.000;2022-11-22T19:51:21;99712.72;;;18.75;35.87
62976;BME280;49071;0.000;0.000;2022-11-22T19:54:22;99722.78;;;18.67;35.95
62976;BME280;49071;0.000;0.000;2022-11-22T19:57:22;99721.19;;;18.61;36.09
62976;BME280;49071;0.000;0.000;2022-11-22T20:00:22;99727.19;;;18.53;36.29
62976;BME280;49071;0.000;0.000;2022-11-22T20:03:22;99729.72;;;18.51;36.29
62976;BME280;49071;0.000;0.000;2022-11-22T20:06:23;99733.41;;;18.43;36.27
62976;BME280;49071;0.000;0.000;2022-11-22T20:09:23;99729.97;;;18.33;36.53
62976;BME280;49071;0.000;0.000;2022-11-22T20:12:24;99730.31;;;18.20;36.70
62976;BME280;49071;0.000;0.000;2022-11-22T20:15:24;99728.91;;;18.10;36.74
62976;BME280;49071;0.000;0.000;2022-11-22T20:18:25;99727.75;;;18.02;36.92
62976;BME280;49071;0.000;0.000;2022-11-22T20:21:26;99724.47;;;18.03;37.12
62976;BME280;49071;0.000;0.000;2022-11-22T20:24:27;99723.78;;;18.08;37.09
62976;BME280;49071;0.000;0.000;2022-11-22T20:27:29;99715.75;;;18.16;37.13
62976;BME280;49071;0.000;0.000;2022-11-22T20:30:29;99716.09;;;18.24;36.98
62976;BME280;49071;0.000;0.000;2022-11-22T20:33:29;99718.09;;;18.38;36.77
62976;BME280;49071;0.000;0.000;2022-11-22T20:36:30;99733.03;;;18.55;36.56
62976;BME280;49071;0.000;0.000;2022-11-22T20:39:31;99733.53;;;18.74;36.28
62976;BME280;49071;0.000;0.000;2022-11-22T20:42:34;99730.97;;;18.91;36.01
62976;BME280;49071;0.000;0.000;2022-11-22T20:45:34;99735.19;;;19.02;36.00
62976;BME280;49071;0.000;0.000;2022-11-22T20:48:35;99732.84;;;19.00;35.93
